createdAt,value
2023-12-21T00:02:26.116Z,61822.13
2023-12-21T00:04:54.777Z,61845.34
2023-12-21T00:07:22.802Z,61838.88
2023-12-21T00:09:50.818Z,61829.75
2023-12-21T00:12:20.254Z,61855.50
2023-12-21T00:14:48.282Z,61852.34
2023-12-21T00:17:16.326Z,61840.97
2023-12-21T00:19:44.360Z,61846.88
2023-12-21T00:22:12.454Z,61850.09
2023-12-21T00:24:40.437Z,61843.81
2023-12-21T00:27:08.420Z,61854.88
2023-12-21T00:29:37.919Z,61853.97
2023-12-21T00:32:06.955Z,61853.88
2023-12-21T00:34:34.994Z,61856.56
2023-12-21T00:37:04.739Z,61858.72
2023-12-21T00:39:32.828Z,61856.56
2023-12-21T00:42:00.870Z,61849.72
2023-12-21T00:44:28.834Z,61857.72
2023-12-21T00:46:58.224Z,61828.91
2023-12-21T00:49:26.329Z,61856.19
2023-12-21T00:51:54.455Z,61859.25
2023-12-21T00:54:22.529Z,61858.72
2023-12-21T00:56:50.497Z,61856.03
2023-12-21T00:59:18.545Z,61852.88
2023-12-21T01:01:46.653Z,61865.19
2023-12-21T01:04:16.122Z,61854.56
2023-12-21T01:06:44.534Z,61833.19
2023-12-21T01:09:12.546Z,61861.50
2023-12-21T01:11:40.543Z,61856.56
2023-12-21T01:14:08.594Z,61859.34
2023-12-21T01:16:36.648Z,61863.56
2023-12-21T01:19:04.802Z,61863.66
2023-12-21T01:21:34.298Z,61859.97
2023-12-21T01:24:02.339Z,61856.13
2023-12-21T01:26:30.387Z,61856.66
2023-12-21T01:28:58.405Z,61863.13
2023-12-21T01:31:26.580Z,61857.09
2023-12-21T01:33:54.842Z,61861.50
2023-12-21T01:36:23.147Z,61859.88
2023-12-21T01:38:52.559Z,61864.09
2023-12-21T01:41:20.576Z,61866.25
2023-12-21T01:43:48.609Z,61866.88
2023-12-21T01:46:16.687Z,61866.78
2023-12-21T01:48:45.364Z,61866.34
2023-12-21T01:51:13.846Z,61850.81
2023-12-21T01:53:42.366Z,61862.03
2023-12-21T01:56:11.945Z,61866.25
2023-12-21T01:58:40.772Z,61870.13
2023-12-21T02:01:09.711Z,61867.50
2023-12-21T02:03:37.852Z,61866.41
2023-12-21T02:06:06.409Z,61862.56
2023-12-21T02:08:34.440Z,61836.97
2023-12-21T02:11:06.908Z,61877.56
2023-12-21T02:13:36.582Z,61872.28
2023-12-21T02:16:07.534Z,61881.31
2023-12-21T02:18:35.689Z,61877.19
2023-12-21T02:21:05.017Z,61874.97
2023-12-21T02:23:38.388Z,61881.31
2023-12-21T02:26:07.833Z,61880.88
2023-12-21T02:28:35.920Z,61853.66
2023-12-21T02:31:04.034Z,61884.19
2023-12-21T02:33:32.101Z,61887.88
2023-12-21T02:36:00.077Z,61876.66
2023-12-21T02:38:28.121Z,61889.94
2023-12-21T02:40:56.103Z,61875.03
2023-12-21T02:43:25.546Z,61889.06
2023-12-21T02:45:52.540Z,61888.34
2023-12-21T02:48:20.626Z,61892.13
2023-12-21T02:50:48.687Z,61888.34
2023-12-21T02:53:16.718Z,61896.44
2023-12-21T02:55:44.773Z,61894.34
2023-12-21T02:58:12.882Z,61900.13
2023-12-21T03:00:42.288Z,61862.81
2023-12-21T03:03:10.353Z,61894.91
2023-12-21T03:05:38.617Z,61870.88
2023-12-21T03:08:07.081Z,61902.88
2023-12-21T03:10:35.096Z,61887.44
2023-12-21T03:13:03.387Z,61900.34
2023-12-21T03:15:33.067Z,61892.19
2023-12-21T03:18:02.474Z,61893.81
2023-12-21T03:20:30.545Z,61905.66
2023-12-21T03:22:58.502Z,61909.88
2023-12-21T03:25:26.514Z,61905.13
2023-12-21T03:27:54.589Z,61900.72
2023-12-21T03:30:22.580Z,61914.22
2023-12-21T03:32:50.875Z,61915.19
2023-12-21T03:35:20.454Z,61888.13
2023-12-21T03:37:48.519Z,61913.66
2023-12-21T03:40:16.923Z,61910.59
2023-12-21T03:42:46.525Z,61926.06
2023-12-21T03:45:14.605Z,61920.13
2023-12-21T03:47:42.597Z,61922.28
2023-12-21T03:50:11.339Z,61914.75
2023-12-21T03:52:40.712Z,61922.97
2023-12-21T03:55:09.329Z,61892.44
2023-12-21T03:57:37.699Z,61927.81
2023-12-21T04:00:07.596Z,61896.72
2023-12-21T04:02:37.784Z,61928.91
2023-12-21T04:05:06.761Z,61932.69
2023-12-21T04:07:34.926Z,61935.91
2023-12-21T04:10:04.495Z,61936.34
2023-12-21T04:12:32.476Z,61935.81
2023-12-21T04:15:00.744Z,61935.91
2023-12-21T04:17:28.907Z,61913.41
2023-12-21T04:19:57.051Z,61922.44
2023-12-21T04:22:25.172Z,61931.06
2023-12-21T04:24:53.195Z,61942.75
2023-12-21T04:27:22.587Z,61947.69
2023-12-21T04:29:50.756Z,61945.53
2023-12-21T04:32:18.762Z,61943.38
2023-12-21T04:34:46.853Z,61939.69
2023-12-21T04:37:14.927Z,61947.69
2023-12-21T04:39:42.920Z,61949.28
2023-12-21T04:42:11.828Z,61931.06
2023-12-21T04:44:41.372Z,61933.13
2023-12-21T04:47:22.434Z,61953.53
2023-12-21T04:49:52.522Z,61922.09
2023-12-21T04:52:20.686Z,61949.38
2023-12-21T04:54:48.800Z,61955.16
2023-12-21T04:57:19.587Z,61953.06
2023-12-21T04:59:50.878Z,61957.84
2023-12-21T05:02:18.875Z,61958.91
2023-12-21T05:04:46.908Z,61952.06
2023-12-21T05:07:15.036Z,61937.53
2023-12-21T05:09:43.091Z,61958.38
2023-12-21T05:12:11.408Z,61956.84
2023-12-21T05:14:39.401Z,61926.94
2023-12-21T05:17:10.055Z,61964.38
2023-12-21T05:19:39.171Z,61968.59
2023-12-21T05:22:07.345Z,61966.09
2023-12-21T05:24:40.468Z,61965.53
2023-12-21T05:27:11.566Z,61970.75
2023-12-21T05:29:39.977Z,61970.75
2023-12-21T05:32:09.931Z,61975.63
2023-12-21T05:34:41.168Z,61969.22
2023-12-21T05:37:11.058Z,61966.53
2023-12-21T05:39:39.198Z,61966.09
2023-12-21T05:42:07.262Z,61968.59
2023-12-21T05:44:35.306Z,61950.91
2023-12-21T05:47:03.240Z,61965.91
2023-12-21T05:49:32.682Z,61963.22
2023-12-21T05:52:02.051Z,61962.22
2023-12-21T05:54:31.967Z,61961.69
2023-12-21T05:57:00.745Z,61943.03
2023-12-21T05:59:28.809Z,61971.22
2023-12-21T06:01:56.866Z,61967.06
2023-12-21T06:04:25.036Z,61968.06
2023-12-21T06:06:54.662Z,61971.94
2023-12-21T06:09:22.749Z,61970.84
2023-12-21T06:11:51.372Z,61938.72
2023-12-21T06:14:19.391Z,61975.06
2023-12-21T06:16:47.475Z,61972.91
2023-12-21T06:19:17.190Z,61963.75
2023-12-21T06:21:45.379Z,61971.31
2023-12-21T06:24:14.766Z,61945.28
2023-12-21T06:26:43.814Z,61975.78
2023-12-21T06:29:12.460Z,61979.41
2023-12-21T06:31:40.661Z,61974.69
2023-12-21T06:34:08.774Z,61978.84
2023-12-21T06:36:36.812Z,61969.22
2023-12-21T06:39:05.309Z,61977.31
2023-12-21T06:41:35.168Z,61972.47
2023-12-21T06:44:03.177Z,61968.59
2023-12-21T06:46:31.183Z,61990.72
2023-12-21T06:48:59.316Z,61984.78
2023-12-21T06:51:27.375Z,61987.53
2023-12-21T06:53:55.350Z,61984.25
2023-12-21T06:56:32.813Z,61981.56
2023-12-21T06:59:04.872Z,61993.47
2023-12-21T07:01:33.660Z,61999.34
2023-12-21T07:04:01.839Z,61994.63
2023-12-21T07:06:29.867Z,61996.19
2023-12-21T07:08:57.989Z,62001.50
2023-12-21T07:11:25.986Z,61979.66
2023-12-21T07:13:53.993Z,62000.56
2023-12-21T07:16:24.441Z,62002.66
2023-12-21T07:18:52.699Z,62001.03
2023-12-21T07:21:20.965Z,62006.88
2023-12-21T07:23:50.217Z,62005.28
2023-12-21T07:26:18.241Z,61997.31
2023-12-21T07:28:46.299Z,62007.41
2023-12-21T07:31:16.937Z,62012.34
2023-12-21T07:33:46.722Z,62019.28
2023-12-21T07:36:16.749Z,62017.75
2023-12-21T07:38:45.059Z,62018.19
2023-12-21T07:41:13.783Z,62022.53
2023-12-21T07:43:42.831Z,61990.44
2023-12-21T07:46:11.361Z,62017.28
2023-12-21T07:48:39.378Z,62019.91
2023-12-21T07:51:08.930Z,62024.03
2023-12-21T07:53:36.908Z,62024.69
2023-12-21T07:56:05.782Z,62020.50
2023-12-21T07:58:33.880Z,62025.88
2023-12-21T08:01:02.238Z,62032.38
2023-12-21T08:03:30.303Z,62031.66
2023-12-21T08:05:58.369Z,62036.53
2023-12-21T08:08:27.871Z,62042.53
2023-12-21T08:10:56.431Z,62041.94
2023-12-21T08:13:24.660Z,62041.38
2023-12-21T08:15:52.762Z,62042.59
2023-12-21T08:18:21.086Z,62055.84
2023-12-21T08:20:50.824Z,62047.53
2023-12-21T08:23:18.901Z,62051.78
2023-12-21T08:25:49.502Z,62039.91
2023-12-21T08:28:18.538Z,62061.34
2023-12-21T08:30:46.770Z,62063.50
2023-12-21T08:33:14.970Z,62060.78
2023-12-21T08:35:43.021Z,62058.25
2023-12-21T08:38:12.213Z,62067.25
2023-12-21T08:40:40.253Z,62070.50
2023-12-21T08:43:09.691Z,62058.78
2023-12-21T08:45:37.839Z,62058.72
2023-12-21T08:48:06.550Z,62057.16
2023-12-21T08:50:34.819Z,62068.34
2023-12-21T08:53:04.190Z,62065.72
2023-12-21T08:55:32.303Z,62073.66
2023-12-21T08:58:00.865Z,62046.22
2023-12-21T09:00:31.155Z,62076.38
2023-12-21T09:02:59.715Z,62077.50
2023-12-21T09:05:28.508Z,62077.44
2023-12-21T09:07:56.520Z,62073.81
2023-12-21T09:10:24.723Z,62076.44
2023-12-21T09:12:52.835Z,62064.63
2023-12-21T09:15:21.057Z,62072.81
2023-12-21T09:17:50.513Z,62078.59
2023-12-21T09:20:18.652Z,62081.28
2023-12-21T09:22:49.562Z,62085.06
2023-12-21T09:25:19.784Z,62087.22
2023-12-21T09:27:48.158Z,62076.38
2023-12-21T09:30:18.833Z,62088.84
2023-12-21T09:32:50.318Z,62079.75
2023-12-21T09:35:21.267Z,62085.16
2023-12-21T09:37:51.711Z,62088.91
2023-12-21T09:40:19.980Z,62070.59
2023-12-21T09:42:58.071Z,62094.78
2023-12-21T09:45:33.797Z,62098.00
2023-12-21T09:48:02.171Z,62091.16
2023-12-21T09:50:31.767Z,62081.44
2023-12-21T09:53:03.460Z,62090.06
2023-12-21T09:55:32.795Z,62092.22
2023-12-21T09:58:02.238Z,62092.16
2023-12-21T10:00:31.318Z,62099.25
2023-12-21T10:03:00.682Z,62075.63
2023-12-21T10:05:29.489Z,62103.88
2023-12-21T10:08:03.122Z,62102.41
2023-12-21T10:10:36.543Z,62110.50
2023-12-21T10:13:05.275Z,62111.50
2023-12-21T10:15:34.346Z,62109.88
2023-12-21T10:18:06.096Z,62099.25
2023-12-21T10:20:35.639Z,62107.81
2023-12-21T10:23:06.605Z,62108.25
2023-12-21T10:25:34.784Z,62101.25
2023-12-21T10:28:06.994Z,62096.00
2023-12-21T10:30:36.096Z,62113.72
2023-12-21T10:33:06.689Z,62111.03
2023-12-21T10:35:35.398Z,62114.28
2023-12-21T10:38:05.184Z,62119.06
2023-12-21T10:40:34.880Z,62110.88
2023-12-21T10:43:05.537Z,62116.84
2023-12-21T10:45:36.845Z,62113.13
2023-12-21T10:48:10.433Z,62105.09
2023-12-21T10:50:41.468Z,62107.25
2023-12-21T10:53:12.605Z,62098.16
2023-12-21T10:55:50.052Z,62099.16
2023-12-21T10:58:21.421Z,62093.31
2023-12-21T11:00:50.456Z,62099.16
2023-12-21T11:03:18.751Z,62072.13
2023-12-21T11:05:47.175Z,62101.78
2023-12-21T11:08:16.616Z,62094.78
2023-12-21T11:10:46.470Z,62101.72
2023-12-21T11:13:14.620Z,62094.78
2023-12-21T11:15:43.251Z,62099.66
2023-12-21T11:18:16.190Z,62104.97
2023-12-21T11:20:50.240Z,62093.16
2023-12-21T11:23:20.958Z,62111.50
2023-12-21T11:25:56.994Z,62112.66
2023-12-21T11:28:30.301Z,62117.50
2023-12-21T11:30:58.512Z,62105.19
2023-12-21T11:33:30.714Z,62101.25
2023-12-21T11:35:59.442Z,62126.16
2023-12-21T11:38:47.358Z,62129.84
2023-12-21T11:41:16.824Z,62130.53
2023-12-21T11:43:57.085Z,62131.00
2023-12-21T11:46:25.142Z,62140.03
2023-12-21T11:48:53.239Z,62126.69
2023-12-21T11:51:21.274Z,62137.41
2023-12-21T11:53:51.058Z,62138.50
2023-12-21T11:56:19.570Z,62130.53
2023-12-21T11:58:50.459Z,62131.09
2023-12-21T12:01:27.555Z,62137.94
2023-12-21T12:03:55.892Z,62141.25
2023-12-21T12:06:27.135Z,62145.41
2023-12-21T12:08:57.532Z,62138.09
2023-12-21T12:11:26.346Z,62145.03
2023-12-21T12:13:55.029Z,62148.13
2023-12-21T12:16:23.865Z,62142.97
2023-12-21T12:18:52.360Z,62145.03
2023-12-21T12:21:20.906Z,62141.25
2023-12-21T12:23:49.092Z,62147.13
2023-12-21T12:26:19.622Z,62141.66
2023-12-21T12:28:50.571Z,62148.28
2023-12-21T12:31:19.092Z,62146.66
2023-12-21T12:33:48.682Z,62138.09
2023-12-21T12:36:20.537Z,62130.38
2023-12-21T12:38:50.233Z,62113.97
2023-12-21T12:41:24.065Z,62112.84
2023-12-21T12:43:53.061Z,62144.50
2023-12-21T12:46:23.031Z,62147.72
2023-12-21T12:48:51.251Z,62142.97
2023-12-21T12:51:19.499Z,62146.66
2023-12-21T12:53:49.168Z,62141.88
2023-12-21T12:56:17.409Z,62158.47
2023-12-21T13:01:17.768Z,62130.66
2023-12-21T13:03:46.292Z,62153.22
2023-12-21T13:06:18.601Z,62159.56
2023-12-21T13:08:47.998Z,62155.31
2023-12-21T13:11:17.368Z,62149.97
2023-12-21T13:13:47.930Z,62152.53
2023-12-21T13:16:19.722Z,62147.84
2023-12-21T13:18:48.434Z,62148.75
2023-12-21T13:21:16.641Z,62153.63
2023-12-21T13:23:44.634Z,62138.63
2023-12-21T13:26:14.162Z,62144.56
2023-12-21T13:28:46.348Z,62142.41
2023-12-21T13:31:15.591Z,62140.63
2023-12-21T13:33:44.947Z,62147.72
2023-12-21T13:36:13.227Z,62106.09
2023-12-21T13:38:42.609Z,62136.47
2023-12-21T13:41:10.917Z,62135.38
2023-12-21T13:43:39.801Z,62140.16
2023-12-21T13:46:09.781Z,62140.16
2023-12-21T13:48:37.858Z,62144.41
2023-12-21T13:51:06.675Z,62134.72
2023-12-21T13:53:35.589Z,62143.25
2023-12-21T13:56:04.401Z,62133.25
2023-12-21T13:58:32.514Z,62090.59
2023-12-21T14:01:00.688Z,62132.63
2023-12-21T14:03:30.105Z,62126.22
2023-12-21T14:05:58.294Z,62115.41
2023-12-21T14:08:26.968Z,62129.91
2023-12-21T14:10:55.123Z,62116.44
2023-12-21T14:13:23.773Z,62130.38
2023-12-21T14:15:51.982Z,62132.00
2023-12-21T14:18:19.973Z,62127.22
2023-12-21T14:20:52.888Z,62138.50
2023-12-21T14:23:22.608Z,62139.69
2023-12-21T14:25:51.047Z,62131.09
2023-12-21T14:28:19.282Z,62134.84
2023-12-21T14:30:48.211Z,62139.63
2023-12-21T14:33:17.045Z,62139.03
2023-12-21T14:35:49.186Z,62133.78
2023-12-21T14:41:10.086Z,62147.66
2023-12-21T14:43:42.960Z,62141.25
2023-12-21T14:46:14.276Z,62134.78
2023-12-21T14:48:43.196Z,62140.78
2023-12-21T14:51:17.823Z,62142.88
2023-12-21T14:53:49.003Z,62142.31
2023-12-21T14:56:20.287Z,62130.47
2023-12-21T14:58:48.303Z,62119.06
2023-12-21T15:01:16.977Z,62138.09
2023-12-21T15:03:45.843Z,62145.09
2023-12-21T15:06:14.253Z,62147.84
2023-12-21T15:08:42.292Z,62153.69
2023-12-21T15:11:18.463Z,62157.56
2023-12-21T15:13:47.469Z,62161.19
2023-12-21T15:16:16.719Z,62157.00
2023-12-21T15:18:45.795Z,62165.03
2023-12-21T15:21:14.653Z,62160.09
2023-12-21T15:23:43.860Z,62162.31
2023-12-21T15:26:15.054Z,62162.72
2023-12-21T15:28:43.184Z,62152.44
2023-12-21T15:31:11.437Z,62156.94
2023-12-21T15:33:39.509Z,62152.13
2023-12-21T15:36:08.449Z,62154.22
2023-12-21T15:38:36.492Z,62152.53
2023-12-21T15:41:04.605Z,62151.00
2023-12-21T15:43:37.027Z,62151.53
2023-12-21T15:46:05.257Z,62155.16
2023-12-21T15:48:33.499Z,62141.25
2023-12-21T15:51:01.825Z,62143.97
2023-12-21T15:53:29.802Z,62141.31
2023-12-21T15:55:57.851Z,62153.09
2023-12-21T15:58:25.965Z,62150.47
2023-12-21T16:00:56.320Z,62158.47
2023-12-21T16:03:25.470Z,62150.94
2023-12-21T16:05:53.536Z,62145.59
2023-12-21T16:08:22.016Z,62156.47
2023-12-21T16:10:50.154Z,62175.22
2023-12-21T16:13:18.481Z,62165.03
2023-12-21T16:15:46.688Z,62138.00
2023-12-21T16:18:16.343Z,62178.06
2023-12-21T16:20:44.641Z,62172.66
2023-12-21T16:23:14.883Z,62179.06
2023-12-21T16:25:43.031Z,62153.75
2023-12-21T16:28:11.169Z,62191.97
2023-12-21T16:30:39.191Z,62182.91
2023-12-21T16:33:07.321Z,62195.19
2023-12-21T16:35:36.735Z,62172.59
2023-12-21T16:38:06.733Z,62187.69
2023-12-21T16:40:35.262Z,62196.19
2023-12-21T16:43:03.306Z,62199.59
2023-12-21T16:45:32.503Z,62209.78
2023-12-21T16:48:01.605Z,62210.84
2023-12-21T16:50:29.803Z,62205.91
2023-12-21T16:53:02.360Z,62205.97
2023-12-21T16:55:30.486Z,62193.09
2023-12-21T16:57:59.174Z,62204.31
2023-12-21T17:00:27.183Z,62199.13
2023-12-21T17:02:55.242Z,62199.03
2023-12-21T17:05:23.446Z,62207.69
2023-12-21T17:07:51.566Z,62209.22
2023-12-21T17:10:21.499Z,62208.84
2023-12-21T17:12:49.863Z,62200.66
2023-12-21T17:15:18.438Z,62198.56
2023-12-21T17:17:47.063Z,62207.69
2023-12-21T17:20:15.596Z,62209.84
2023-12-21T17:22:43.631Z,62216.25
2023-12-21T17:25:12.001Z,62203.34
2023-12-21T17:27:45.116Z,62212.47
2023-12-21T17:30:13.637Z,62210.44
2023-12-21T17:32:41.622Z,62220.09
2023-12-21T17:35:11.003Z,62213.06
2023-12-21T17:37:39.145Z,62218.00
2023-12-21T17:40:12.372Z,62213.13
2023-12-21T17:42:42.093Z,62199.59
2023-12-21T17:45:12.565Z,62187.41
2023-12-21T17:47:41.258Z,62212.06
2023-12-21T17:50:11.356Z,62204.44
2023-12-21T17:52:41.528Z,62219.56
2023-12-21T17:55:10.480Z,62234.06
2023-12-21T17:57:38.681Z,62219.56
2023-12-21T18:00:10.917Z,62229.81
2023-12-21T18:02:38.989Z,62222.66
2023-12-21T18:05:07.632Z,62230.91
2023-12-21T18:07:35.730Z,62233.06
2023-12-21T18:10:04.366Z,62223.34
2023-12-21T18:12:32.487Z,62237.31
2023-12-21T18:15:00.503Z,62237.88
2023-12-21T18:17:29.995Z,62234.16
2023-12-21T18:19:58.074Z,62234.16
2023-12-21T18:22:26.874Z,62237.88
2023-12-21T18:24:54.957Z,62233.13
2023-12-21T18:27:22.930Z,62223.25
2023-12-21T18:29:51.080Z,62235.78
2023-12-21T18:32:19.061Z,62241.16
2023-12-21T18:34:50.091Z,62243.25
2023-12-21T18:37:18.316Z,62228.28
2023-12-21T18:39:46.392Z,62239.53
2023-12-21T18:42:14.398Z,62240.63
2023-12-21T18:44:42.525Z,62217.41
2023-12-21T18:47:11.581Z,62248.13
2023-12-21T18:49:39.603Z,62240.00
2023-12-21T18:52:09.199Z,62242.25
2023-12-21T18:54:37.328Z,62238.53
2023-12-21T18:57:07.982Z,62230.97
2023-12-21T18:59:35.989Z,62234.75
2023-12-21T19:02:04.387Z,62243.78
2023-12-21T19:04:32.711Z,62241.63
2023-12-21T19:07:00.765Z,62239.00
2023-12-21T19:09:31.580Z,62235.31
2023-12-21T19:11:59.608Z,62233.06
2023-12-21T19:14:27.557Z,62227.66
2023-12-21T19:16:57.075Z,62231.38
2023-12-21T19:19:25.737Z,62239.47
2023-12-21T19:21:53.921Z,62231.50
2023-12-21T19:24:21.942Z,62235.25
2023-12-21T19:26:56.199Z,62229.28
2023-12-21T19:29:24.270Z,62235.25
2023-12-21T19:31:52.382Z,62223.41
2023-12-21T19:34:23.067Z,62236.78
2023-12-21T19:36:51.265Z,62240.00
2023-12-21T19:39:19.244Z,62239.47
2023-12-21T19:41:47.280Z,62220.63
2023-12-21T19:44:17.670Z,62231.44
2023-12-21T19:46:45.681Z,62227.13
2023-12-21T19:49:14.202Z,62216.88
2023-12-21T19:51:42.497Z,62225.44
2023-12-21T19:54:10.750Z,62187.94
2023-12-21T19:56:38.729Z,62220.63
2023-12-21T19:59:06.711Z,62206.22
2023-12-21T20:01:36.144Z,62209.78
2023-12-21T20:04:04.200Z,62204.50
2023-12-21T20:06:32.153Z,62209.22
2023-12-21T20:09:00.182Z,62205.50
2023-12-21T20:11:29.768Z,62203.41
2023-12-21T20:13:59.594Z,62208.69
2023-12-21T20:16:27.771Z,62207.69
2023-12-21T20:18:57.240Z,62208.69
2023-12-21T20:21:28.548Z,62190.41
2023-12-21T20:23:56.565Z,62205.03
2023-12-21T20:26:24.623Z,62185.53
2023-12-21T20:28:53.020Z,62217.94
2023-12-21T20:31:21.178Z,62214.16
2023-12-21T20:33:49.816Z,62203.41
2023-12-21T20:36:19.322Z,62199.97
2023-12-21T20:38:47.438Z,62213.06
2023-12-21T20:41:15.481Z,62202.34
2023-12-21T20:43:43.529Z,62157.16
2023-12-21T20:46:12.101Z,62185.00
2023-12-21T20:48:40.099Z,62181.69
2023-12-21T20:51:08.198Z,62187.16
2023-12-21T20:53:37.687Z,62160.72
2023-12-21T20:56:06.578Z,62155.38
2023-12-21T20:58:36.775Z,62178.44
2023-12-21T21:01:05.991Z,62139.63
2023-12-21T21:03:38.692Z,62177.44
2023-12-21T21:06:07.863Z,62181.84
2023-12-21T21:08:37.708Z,62175.34
2023-12-21T21:11:06.906Z,62174.81
2023-12-21T21:13:37.884Z,62156.38
2023-12-21T21:16:08.417Z,62126.44
2023-12-21T21:18:36.975Z,62140.16
2023-12-21T21:21:05.367Z,62183.44
2023-12-21T21:23:33.589Z,62175.88
2023-12-21T21:26:03.648Z,62179.59
2023-12-21T21:28:31.723Z,62178.97
2023-12-21T21:31:01.892Z,62182.25
2023-12-21T21:33:30.175Z,62180.16
2023-12-21T21:35:58.222Z,62186.06
2023-12-21T21:38:27.865Z,62182.69
2023-12-21T21:40:59.595Z,62183.91
2023-12-21T21:43:33.229Z,62177.97
2023-12-21T21:46:10.151Z,62168.34
2023-12-21T21:48:46.524Z,62175.75
2023-12-21T21:51:18.477Z,62164.47
2023-12-21T21:53:49.692Z,62171.44
2023-12-21T21:56:20.204Z,62167.72
2023-12-21T21:58:53.071Z,62167.72
2023-12-21T22:01:25.365Z,62160.63
2023-12-21T22:03:55.750Z,62174.66
2023-12-21T22:06:28.672Z,62172.66
2023-12-21T22:09:00.258Z,62178.97
2023-12-21T22:11:28.334Z,62170.91
2023-12-21T22:14:08.990Z,62170.50
2023-12-21T22:16:38.512Z,62171.44
2023-12-21T22:19:07.069Z,62160.25
2023-12-21T22:21:36.306Z,62162.94
2023-12-21T22:24:07.130Z,62168.25
2023-12-21T22:26:36.024Z,62171.44
2023-12-21T22:29:06.628Z,62166.56
2023-12-21T22:31:34.936Z,62169.19
2023-12-21T22:34:07.393Z,62166.56
2023-12-21T22:36:36.952Z,62153.75
2023-12-21T22:39:05.108Z,62165.50
2023-12-21T22:41:35.976Z,62163.88
2023-12-21T22:44:05.813Z,62162.41
2023-12-21T22:46:33.948Z,62172.03
2023-12-21T22:49:02.206Z,62172.59
2023-12-21T22:51:31.021Z,62170.97
2023-12-21T22:53:59.025Z,62169.91
2023-12-21T22:56:27.100Z,62164.00
2023-12-21T22:58:55.203Z,62170.97
2023-12-21T23:01:24.696Z,62169.81
2023-12-21T23:03:54.375Z,62163.28
2023-12-21T23:06:23.372Z,62170.34
2023-12-21T23:08:58.214Z,62170.44
2023-12-21T23:11:26.332Z,62166.19
2023-12-21T23:13:54.358Z,62162.88
2023-12-21T23:16:24.627Z,62161.19
2023-12-21T23:18:54.253Z,62147.28
2023-12-21T23:21:22.340Z,62151.53
2023-12-21T23:23:50.306Z,62140.25
2023-12-21T23:26:19.541Z,62139.63
2023-12-21T23:28:47.916Z,62152.91
2023-12-21T23:31:15.947Z,62148.28
2023-12-21T23:33:44.049Z,62153.69
2023-12-21T23:36:14.626Z,62157.31
2023-12-21T23:46:05.805Z,62146.66
2023-12-21T23:48:33.986Z,62149.44
2023-12-21T23:51:02.061Z,62157.38
2023-12-21T23:53:32.356Z,62143.97
2023-12-21T23:56:00.374Z,62168.72
2023-12-21T23:58:29.966Z,62160.63
